Southbridge, MA (01550)

2:01 PM EDT on August 24, 2016 (GMT -0400)
Dennison Hill | | Change Station

Elev 784 ft 42.06 °N, 72.06 °W | Updated 8 seconds ago

Clear
Clear
81.7 °F
Feels Like 82 °F
N
0.0
Wind Variable Wind from South
Gusts 0.0 mph

Today
High -- | Low -- °F
--% Chance of Precip.
Yesterday
High -- | Low -- °F
Precip. -- in
Pressure 30.24 in
Visibility 10.0 miles
Clouds Clear
Heat Index 82 °F
Dew Point 57 °F
Humidity 43%
Rainfall 0.00 in
Snow Depth Not available.
6:05 AM 7:34 PM
Waning Gibbous, 55% visible
METAR KORH 241754Z 22011KT 10SM CLR 27/13 A3025 RMK AO2 SLP239 T02670133 10267 20189 56010
Pressure 30.24 in
Visibility 10.0 miles
Clouds Clear
Heat Index 82 °F
Dew Point 57 °F
Humidity 43%
Rainfall 0.00 in
Snow Depth Not available.
6:05 AM 7:34 PM
Waning Gibbous, 55% visible
METAR KORH 241754Z 22011KT 10SM CLR 27/13 A3025 RMK AO2 SLP239 T02670133 10267 20189 56010

10-Day Weather Forecast

Almanac

Astronomy

Aug. 24, 2016 Rise Set
Actual Time
Civil Twilight
Nautical Twilight
Astronomical Twilight
Moon
Length of Visible Light
Length of Day
Tomorrow will be .
, % of the Moon is Illuminated

Today's Extremes

State Highs State Lows

Community

WunderPhotos

Upload Photos

1,934,662 photos uploaded!

WunderBlog® & News

Nearby

Air Quality

  Air Quality AQ Index Pollutant
Not available.

Snow Depth

Station Depth Elevation

Earthquake Activity

City Distance Mag. Time & Date
Minimum magnitude displayed is 2.5.

Coastal Water Temperatures

Place Temperature

Stations

Nearby Weather Stations

Station Location Temp. Windchill Dew Point Humidity Wind Precip. Elev Updated Type
                   

Watches & Warnings

There are currently no watches in effect.